Time;durP1;ratioP1;P1;durP2;ratioP2;P2;SDS_P1;SDS_P2;PMS_P1;PMS_P2;Temp;Humidity;BMP_temperature;BMP_pressure;BME280_temperature;BME280_humidity;BME280_pressure;Samples;Min_cycle;Max_cycle;Signal;HPM_P1;HPM_P2
2022/05/31 00:00:24;;;;;;;;;;;;;;;21.02;63.75;99234.22;2044788;28;19914;-50
2022/05/31 00:01:25;;;;;;;;;;;;;;;21.01;63.49;99225.19;2042580;28;20050;-47
2022/05/31 00:02:26;;;;;;;;;;;;;;;21.00;64.09;99231.91;2045471;28;19914;-47
2022/05/31 00:03:26;;;;;;;;;;;;;;;21.00;64.36;99231.91;2043538;28;20000;-46
2022/05/31 00:04:27;;;;;;;;;;;;;;;21.01;64.65;99236.19;2042840;28;19976;-47
2022/05/31 00:05:27;;;;;;;;;;;;;;;21.02;64.99;99235.00;2044705;28;19918;-47
2022/05/31 00:06:28;;;;;;;;;;;;;;;21.01;64.81;99236.19;2042851;28;19941;-46
2022/05/31 00:07:28;;;;;;;;;;;;;;;21.00;64.42;99231.91;2044669;28;19914;-46
2022/05/31 00:08:28;;;;;;;;;;;;;;;21.02;64.56;99235.00;2043693;28;19913;-49
2022/05/31 00:09:29;;;;;;;;;;;;;;;21.02;64.44;99226.72;2044002;28;19921;-48
2022/05/31 00:10:29;;;;;;;;;;;;;;;21.01;62.14;99221.66;2044519;28;19914;-47
2022/05/31 00:11:30;;;;;;;;;;;;;;;21.00;63.76;99220.88;2049881;28;19913;-47
2022/05/31 00:12:31;;;;;;;;;;;;;;;21.01;63.53;99221.66;2052070;28;20736;-46
2022/05/31 00:13:31;;;;;;;;;;;;;;;21.00;63.98;99220.88;2044042;28;19997;-47
2022/05/31 00:14:32;;;;;;;;;;;;;;;20.99;64.09;99213.09;2046404;28;19961;-47
2022/05/31 00:15:32;;;;;;;;;;;;;;;20.98;62.54;99222.56;2042756;28;19953;-47
2022/05/31 00:16:33;;;;;;;;;;;;;;;20.98;63.70;99223.34;2042919;28;19924;-47
2022/05/31 00:17:34;;;;;;;;;;;;;;;20.98;63.84;99219.81;2044852;28;19910;-47
2022/05/31 00:18:34;;;;;;;;;;;;;;;20.97;62.37;99219.03;2049692;28;19935;-46
2022/05/31 00:19:34;;;;;;;;;;;;;;;20.97;62.89;99221.78;2051121;28;20008;-47
2022/05/31 00:20:35;;;;;;;;;;;;;;;20.97;62.46;99224.56;2044538;28;19914;-48
2022/05/31 00:21:43;;;;;;;;;;;;;;;20.98;63.75;99228.84;2043644;28;19969;-48
2022/05/31 00:22:44;;;;;;;;;;;;;;;20.97;62.09;99224.56;2044477;28;19905;-49
2022/05/31 00:23:44;;;;;;;;;;;;;;;20.97;63.17;99227.31;2043110;28;19914;-46
2022/05/31 00:24:44;;;;;;;;;;;;;;;20.97;63.19;99232.03;2042398;28;19952;-48
2022/05/31 00:25:45;;;;;;;;;;;;;;;20.98;63.13;99239.09;2045468;28;19961;-46
2022/05/31 00:26:46;;;;;;;;;;;;;;;20.98;63.19;99236.34;2043191;28;19921;-47
2022/05/31 00:27:46;;;;;;;;;;;;;;;20.96;63.53;99236.78;2045211;28;19906;-47
2022/05/31 00:28:47;;;;;;;;;;;;;;;20.96;63.17;99236.78;2042975;28;19906;-47
2022/05/31 00:29:50;;;;;;;;;;;;;;;20.96;62.83;99245.03;2043751;28;19913;-47
2022/05/31 00:30:51;;;;;;;;;;;;;;;20.96;62.60;99245.03;2043300;28;20383;-47
2022/05/31 00:31:51;;;;;;;;;;;;;;;20.96;63.09;99250.53;2050208;28;20412;-47
2022/05/31 00:32:52;;;;;;;;;;;;;;;20.95;63.81;99242.72;2050227;28;20879;-49
2022/05/31 00:33:52;;;;;;;;;;;;;;;20.95;64.10;99251.75;2041365;28;20400;-46
2022/05/31 00:34:54;;;;;;;;;;;;;;;20.96;63.82;99255.28;2043556;28;20200;-46
2022/05/31 00:35:54;;;;;;;;;;;;;;;20.95;62.88;99249.00;2050205;28;19924;-46
2022/05/31 00:36:56;;;;;;;;;;;;;;;20.95;63.34;99250.97;2050579;28;19920;-46
2022/05/31 00:37:57;;;;;;;;;;;;;;;20.95;63.79;99250.97;2044352;28;20372;-46
2022/05/31 00:38:57;;;;;;;;;;;;;;;20.94;64.20;99257.69;2044950;28;19975;-46
2022/05/31 00:39:58;;;;;;;;;;;;;;;20.92;62.97;99249.91;2043598;28;20394;-48
2022/05/31 00:41:23;;;;;;;;;;;;;;;20.93;64.11;99254.19;2044412;28;19919;-48
2022/05/31 00:42:23;;;;;;;;;;;;;;;20.93;63.21;99264.44;2042784;28;19913;-47
2022/05/31 00:43:25;;;;;;;;;;;;;;;20.93;62.98;99270.72;2040463;28;19961;-46
2022/05/31 00:44:27;;;;;;;;;;;;;;;20.93;64.02;99265.19;2048565;28;19917;-47
2022/05/31 00:45:42;;;;;;;;;;;;;;;20.93;64.02;99265.19;2042850;28;19941;-46
2022/05/31 00:46:49;;;;;;;;;;;;;;;20.93;64.51;99267.19;2046302;28;19964;-47
2022/05/31 00:47:49;;;;;;;;;;;;;;;20.93;64.03;99269.94;2044202;28;20019;-47
2022/05/31 00:48:56;;;;;;;;;;;;;;;20.93;63.32;99273.47;2050463;28;19913;-47
2022/05/31 00:50:09;;;;;;;;;;;;;;;20.93;63.46;99284.47;2048360;28;19913;-46
2022/05/31 00:51:12;;;;;;;;;;;;;;;20.94;63.35;99280.47;2037324;28;20398;-47
2022/05/31 00:52:15;;;;;;;;;;;;;;;20.94;63.75;99276.94;2042088;28;20292;-47
2022/05/31 00:53:22;;;;;;;;;;;;;;;20.93;64.26;99284.47;2041526;28;19914;-47
2022/05/31 00:54:23;;;;;;;;;;;;;;;20.93;64.04;99276.22;2042857;28;19913;-49
2022/05/31 00:55:27;;;;;;;;;;;;;;;20.94;64.11;99290.72;2036293;28;19945;-46
2022/05/31 00:56:29;;;;;;;;;;;;;;;20.92;63.90;99285.69;2044758;28;19914;-46
2022/05/31 00:57:31;;;;;;;;;;;;;;;20.93;64.29;99291.94;2042751;28;20924;-46
2022/05/31 00:58:33;;;;;;;;;;;;;;;20.94;64.87;99301.72;2054233;28;19914;-47
2022/05/31 00:59:37;;;;;;;;;;;;;;;20.93;65.05;99295.47;2049151;28;19977;-47
2022/05/31 01:00:39;;;;;;;;;;;;;;;20.92;63.78;99307.69;2044379;28;19914;-46
2022/05/31 01:01:41;;;;;;;;;;;;;;;20.93;63.05;99309.25;2043837;28;20307;-47
2022/05/31 01:02:43;;;;;;;;;;;;;;;20.91;63.07;99311.66;2043410;28;19917;-47
2022/05/31 01:03:44;;;;;;;;;;;;;;;20.93;63.93;99314.75;2043879;28;19913;-47
2022/05/31 01:04:48;;;;;;;;;;;;;;;20.93;64.42;99330.50;2043065;28;20807;-48
2022/05/31 01:05:49;;;;;;;;;;;;;;;20.92;63.74;99328.94;2052174;28;20426;-47
2022/05/31 01:06:49;;;;;;;;;;;;;;;20.93;63.22;99324.97;2050009;28;19919;-48
2022/05/31 01:07:50;;;;;;;;;;;;;;;20.91;63.68;99322.66;2043111;28;19965;-46
2022/05/31 01:08:53;;;;;;;;;;;;;;;20.92;62.94;99328.94;2044037;28;19914;-46
2022/05/31 01:09:53;;;;;;;;;;;;;;;20.92;63.87;99326.97;2042427;28;19972;-47
2022/05/31 01:10:54;;;;;;;;;;;;;;;20.93;64.42;99327.72;2046273;28;19914;-51
2022/05/31 01:11:56;;;;;;;;;;;;;;;20.90;64.00;99321.13;2044114;28;19913;-47
2022/05/31 01:12:57;;;;;;;;;;;;;;;20.90;63.40;99320.34;2041852;28;19934;-47
2022/05/31 01:13:57;;;;;;;;;;;;;;;20.91;62.70;99327.41;2044402;28;20363;-46
2022/05/31 01:14:57;;;;;;;;;;;;;;;20.91;64.27;99319.91;2042205;28;19921;-46
2022/05/31 01:16:06;;;;;;;;;;;;;;;20.91;64.80;99324.66;2043414;28;19921;-47
2022/05/31 01:17:07;;;;;;;;;;;;;;;20.89;64.02;99330.59;2042217;28;19957;-46
2022/05/31 01:18:08;;;;;;;;;;;;;;;20.90;63.80;99321.13;2045556;28;20145;-47
2022/05/31 01:19:55;;;;;;;;;;;;;;;20.90;64.20;99323.88;2042451;28;19906;-46
2022/05/31 01:20:29;;;;;;;;;;;;;;;20.90;63.97;99325.84;2044102;28;19906;-49
2022/05/31 01:21:29;;;;;;;;;;;;;;;20.90;64.29;99321.13;2043851;28;19938;-48
2022/05/31 01:22:29;;;;;;;;;;;;;;;20.90;64.26;99321.13;2044384;28;19924;-46
2022/05/31 01:23:33;;;;;;;;;;;;;;;20.90;64.66;99314.84;2042909;28;19977;-47
2022/05/31 01:24:38;;;;;;;;;;;;;;;20.89;63.76;99316.06;2044150;28;19917;-47
2022/05/31 01:25:47;;;;;;;;;;;;;;;20.91;64.33;99321.91;2043028;28;19960;-47
2022/05/31 01:26:54;;;;;;;;;;;;;;;20.90;64.42;99321.13;2041843;28;19925;-47
2022/05/31 01:27:55;;;;;;;;;;;;;;;20.90;64.32;99326.63;2044610;28;20379;-46
2022/05/31 01:29:31;;;;;;;;;;;;;;;20.90;64.74;99329.38;2042867;28;19906;-46
2022/05/31 01:30:34;;;;;;;;;;;;;;;20.89;65.55;99341.59;2026754;29;20433;-47
2022/05/31 01:31:39;;;;;;;;;;;;;;;20.89;65.31;99327.84;2025581;29;20246;-46
2022/05/31 01:32:43;;;;;;;;;;;;;;;20.90;65.37;99342.38;2029163;29;20088;-47
2022/05/31 01:33:43;;;;;;;;;;;;;;;20.89;65.27;99335.31;2042554;28;20380;-48
2022/05/31 01:34:47;;;;;;;;;;;;;;;20.90;64.84;99325.84;2043257;28;19914;-47
2022/05/31 01:35:47;;;;;;;;;;;;;;;20.90;64.47;99326.63;2044679;28;19914;-46
2022/05/31 01:36:49;;;;;;;;;;;;;;;20.90;64.95;99321.13;2042482;28;19914;-47
2022/05/31 01:37:52;;;;;;;;;;;;;;;20.90;65.32;99320.34;2043794;28;19932;-49
2022/05/31 01:38:55;;;;;;;;;;;;;;;20.89;65.02;99327.84;2041842;28;20005;-46
2022/05/31 01:40:02;;;;;;;;;;;;;;;20.90;64.60;99325.84;2042747;28;20186;-46
2022/05/31 01:41:21;;;;;;;;;;;;;;;20.89;65.04;99327.84;2040954;28;20012;-49
2022/05/31 01:42:25;;;;;;;;;;;;;;;20.89;65.40;99335.31;2041303;28;19918;-46
2022/05/31 01:43:25;;;;;;;;;;;;;;;20.89;64.94;99327.06;2043448;28;19921;-45
2022/05/31 01:44:29;;;;;;;;;;;;;;;20.88;64.87;99334.56;2044056;28;19914;-48
2022/05/31 01:45:33;;;;;;;;;;;;;;;20.88;65.08;99329.06;2040861;28;19950;-47
2022/05/31 01:46:35;;;;;;;;;;;;;;;20.89;65.27;99308.56;2043803;28;19972;-46
2022/05/31 01:47:36;;;;;;;;;;;;;;;20.86;65.75;99309.47;2043944;28;20216;-46
2022/05/31 01:48:38;;;;;;;;;;;;;;;20.86;64.70;99298.44;2039350;28;19914;-50
2022/05/31 01:49:40;;;;;;;;;;;;;;;20.87;65.87;99290.97;2040568;28;19906;-46
2022/05/31 01:50:41;;;;;;;;;;;;;;;20.88;65.48;99287.00;2043498;28;19964;-48
2022/05/31 01:51:42;;;;;;;;;;;;;;;20.88;65.11;99285.03;2042893;28;19914;-47
2022/05/31 01:52:44;;;;;;;;;;;;;;;20.87;65.58;99280.72;2043686;28;19914;-47
2022/05/31 01:53:44;;;;;;;;;;;;;;;20.87;65.78;99283.47;2042966;28;19917;-47
2022/05/31 01:54:45;;;;;;;;;;;;;;;20.86;66.09;99286.69;2041686;28;19913;-47
2022/05/31 01:55:48;;;;;;;;;;;;;;;20.84;65.95;99289.88;2042899;28;20520;-47
2022/05/31 01:56:50;;;;;;;;;;;;;;;20.85;65.54;99294.16;2044149;28;19913;-48
2022/05/31 01:57:57;;;;;;;;;;;;;;;20.85;65.57;99294.16;2041550;28;20251;-46
2022/05/31 01:58:58;;;;;;;;;;;;;;;20.84;66.28;99289.88;2041203;28;19922;-47
2022/05/31 02:00:06;;;;;;;;;;;;;;;20.84;66.10;99289.88;2042846;28;19914;-48
2022/05/31 02:01:07;;;;;;;;;;;;;;;20.85;65.65;99293.38;2050172;28;20236;-47
2022/05/31 02:02:08;;;;;;;;;;;;;;;20.84;66.20;99298.13;2043983;28;19906;-46
2022/05/31 02:03:09;;;;;;;;;;;;;;;20.84;66.07;99311.88;2043773;28;19958;-48
2022/05/31 02:04:10;;;;;;;;;;;;;;;20.84;66.32;99300.09;2043943;28;19985;-47
2022/05/31 02:05:10;;;;;;;;;;;;;;;20.84;65.89;99300.88;2048398;28;19917;-48
2022/05/31 02:06:28;;;;;;;;;;;;;;;20.83;65.55;99299.31;2050842;28;19920;-49
2022/05/31 02:07:30;;;;;;;;;;;;;;;20.83;65.42;99291.06;2042127;28;20325;-48
2022/05/31 02:08:30;;;;;;;;;;;;;;;20.84;65.89;99295.38;2039714;28;19914;-46
2022/05/31 02:09:31;;;;;;;;;;;;;;;20.84;65.59;99289.88;2043097;28;19914;-47
2022/05/31 02:10:34;;;;;;;;;;;;;;;20.85;65.99;99293.38;2042754;28;20246;-47
2022/05/31 02:11:35;;;;;;;;;;;;;;;20.83;65.50;99299.31;2044289;28;20020;-48
2022/05/31 02:12:36;;;;;;;;;;;;;;;20.83;65.53;99295.84;2040862;28;19926;-46
2022/05/31 02:13:36;;;;;;;;;;;;;;;20.83;65.89;99299.31;2043695;28;19914;-47
2022/05/31 02:14:37;;;;;;;;;;;;;;;20.83;66.28;99293.06;2051522;28;19972;-46
2022/05/31 02:15:38;;;;;;;;;;;;;;;20.81;65.58;99290.75;2050847;28;19914;-48
2022/05/31 02:16:38;;;;;;;;;;;;;;;20.82;66.03;99292.31;2045783;28;19968;-47
2022/05/31 02:17:38;;;;;;;;;;;;;;;20.82;66.27;99286.03;2044107;28;20001;-47
2022/05/31 02:19:58;;;;;;;;;;;;;;;20.81;65.89;99278.97;2044313;28;19914;-47
2022/05/31 02:20:58;;;;;;;;;;;;;;;20.80;66.28;99278.22;2045877;28;19937;-47
2022/05/31 02:22:01;;;;;;;;;;;;;;;20.80;65.96;99278.22;2044200;28;19906;-46
2022/05/31 02:23:02;;;;;;;;;;;;;;;20.80;66.65;99283.72;2044006;28;20257;-47
2022/05/31 02:24:07;;;;;;;;;;;;;;;20.79;66.67;99279.41;2053984;28;19964;-48
2022/05/31 02:25:08;;;;;;;;;;;;;;;20.80;66.68;99280.97;2050520;28;19913;-46
2022/05/31 02:26:08;;;;;;;;;;;;;;;20.79;66.48;99295.16;2044809;28;19913;-47
2022/05/31 02:27:09;;;;;;;;;;;;;;;20.79;66.80;99293.19;2044188;28;19920;-47
2022/05/31 02:28:10;;;;;;;;;;;;;;;20.79;66.92;99303.41;2051300;28;19921;-47
2022/05/31 02:29:11;;;;;;;;;;;;;;;20.79;66.14;99301.44;2055122;28;19960;-46
2022/05/31 02:30:12;;;;;;;;;;;;;;;20.80;66.27;99307.72;2042734;28;20005;-46
2022/05/31 02:31:12;;;;;;;;;;;;;;;20.80;66.67;99318.72;2046319;28;19965;-47
2022/05/31 02:32:14;;;;;;;;;;;;;;;20.80;66.65;99318.72;2042943;28;20791;-47
2022/05/31 02:33:14;;;;;;;;;;;;;;;20.80;66.42;99318.72;2043910;28;19952;-47
2022/05/31 02:34:16;;;;;;;;;;;;;;;20.79;66.26;99323.44;2043970;28;19929;-47
2022/05/31 02:35:16;;;;;;;;;;;;;;;20.80;65.76;99330.50;2044586;28;19924;-47
2022/05/31 02:36:16;;;;;;;;;;;;;;;20.79;66.30;99334.47;2058831;28;20730;-47
2022/05/31 02:37:18;;;;;;;;;;;;;;;20.78;66.69;99334.91;2049214;28;19973;-48
2022/05/31 02:38:19;;;;;;;;;;;;;;;20.78;66.50;99330.16;2043691;28;20699;-46
2022/05/31 02:39:19;;;;;;;;;;;;;;;20.79;66.35;99330.94;2043330;28;20376;-46
2022/05/31 02:40:19;;;;;;;;;;;;;;;20.78;66.77;99326.66;2045285;28;19918;-46
2022/05/31 02:41:20;;;;;;;;;;;;;;;20.78;67.06;99332.16;2045614;28;19914;-47
2022/05/31 02:42:20;;;;;;;;;;;;;;;20.77;66.92;99336.13;2042729;28;20564;-46
2022/05/31 02:43:20;;;;;;;;;;;;;;;20.77;66.94;99339.66;2044774;28;19918;-46
2022/05/31 02:44:21;;;;;;;;;;;;;;;20.77;66.93;99330.63;2044877;28;19918;-46
2022/05/31 02:45:21;;;;;;;;;;;;;;;20.76;66.89;99327.09;2043735;28;19925;-47
2022/05/31 02:46:22;;;;;;;;;;;;;;;20.76;66.10;99318.84;2045608;28;20043;-46
2022/05/31 02:47:22;;;;;;;;;;;;;;;20.76;66.89;99327.09;2044417;28;19918;-46
2022/05/31 02:48:23;;;;;;;;;;;;;;;20.76;66.23;99321.59;2045066;28;19918;-46
2022/05/31 02:49:23;;;;;;;;;;;;;;;20.78;67.00;99329.41;2052981;28;19917;-46
2022/05/31 02:50:24;;;;;;;;;;;;;;;20.77;66.92;99319.63;2050972;28;20012;-48
2022/05/31 02:51:24;;;;;;;;;;;;;;;20.78;67.26;99329.41;2043891;28;20229;-48
2022/05/31 02:52:24;;;;;;;;;;;;;;;20.77;67.30;99325.88;2043656;28;20264;-48
2022/05/31 02:53:24;;;;;;;;;;;;;;;20.77;66.91;99320.38;2044529;28;19918;-47
2022/05/31 02:54:25;;;;;;;;;;;;;;;20.77;67.22;99323.13;2043691;28;19968;-48
2022/05/31 02:55:25;;;;;;;;;;;;;;;20.77;67.08;99325.88;2044704;28;19945;-47
2022/05/31 02:56:26;;;;;;;;;;;;;;;20.77;67.03;99320.38;2044011;28;19911;-48
2022/05/31 02:57:26;;;;;;;;;;;;;;;20.77;67.25;99328.66;2044822;28;20658;-46
2022/05/31 02:58:27;;;;;;;;;;;;;;;20.77;67.44;99323.13;2045179;28;20078;-46
2022/05/31 02:59:27;;;;;;;;;;;;;;;20.77;67.35;99328.66;2044458;28;19915;-48
2022/05/31 03:00:27;;;;;;;;;;;;;;;20.77;66.95;99333.38;2045557;28;19918;-46
2022/05/31 03:01:30;;;;;;;;;;;;;;;20.76;67.72;99335.34;2044322;28;19918;-46
2022/05/31 03:02:30;;;;;;;;;;;;;;;20.76;67.56;99338.09;2044955;28;19926;-46
2022/05/31 03:03:30;;;;;;;;;;;;;;;20.77;67.52;99338.88;2045301;28;19918;-46
2022/05/31 03:04:31;;;;;;;;;;;;;;;20.77;67.02;99338.88;2043447;28;19918;-47
2022/05/31 03:05:32;;;;;;;;;;;;;;;20.77;67.40;99338.88;2044258;28;19922;-46
2022/05/31 03:06:32;;;;;;;;;;;;;;;20.76;67.89;99332.59;2043234;28;19961;-47
2022/05/31 03:07:32;;;;;;;;;;;;;;;20.77;67.85;99339.66;2046353;28;19918;-47
2022/05/31 03:08:33;;;;;;;;;;;;;;;20.75;67.80;99333.81;2044666;28;20422;-47
2022/05/31 03:09:33;;;;;;;;;;;;;;;20.75;67.67;99338.53;2043499;28;19978;-47
2022/05/31 03:10:35;;;;;;;;;;;;;;;20.75;67.78;99333.03;2045143;28;19918;-48
2022/05/31 03:11:51;;;;;;;;;;;;;;;20.75;67.94;99330.28;2042977;28;19936;-47
2022/05/31 03:12:51;;;;;;;;;;;;;;;20.75;67.75;99341.28;2045686;28;19948;-46
2022/05/31 03:13:54;;;;;;;;;;;;;;;20.75;68.09;99330.28;2045583;28;20337;-47
2022/05/31 03:14:58;;;;;;;;;;;;;;;20.74;67.90;99328.72;2045145;28;20381;-46
2022/05/31 03:16:00;;;;;;;;;;;;;;;20.74;67.58;99340.50;2044216;28;20329;-47
2022/05/31 03:17:06;;;;;;;;;;;;;;;20.74;67.83;99335.00;2044971;28;19964;-46
2022/05/31 03:18:08;;;;;;;;;;;;;;;20.74;68.24;99335.00;2043332;28;20730;-47
2022/05/31 03:19:12;;;;;;;;;;;;;;;20.74;68.23;99324.00;2044949;28;19910;-46
2022/05/31 03:20:21;;;;;;;;;;;;;;;20.73;68.32;99325.22;2044471;28;20248;-48
2022/05/31 03:21:24;;;;;;;;;;;;;;;20.74;67.90;99331.50;2044479;28;19945;-48
2022/05/31 03:22:27;;;;;;;;;;;;;;;20.74;67.76;99337.00;2045712;28;19925;-48
2022/05/31 03:23:27;;;;;;;;;;;;;;;20.73;68.16;99327.97;2044500;28;19918;-46
2022/05/31 03:24:31;;;;;;;;;;;;;;;20.73;67.62;99322.47;2044487;28;19918;-48
2022/05/31 03:25:32;;;;;;;;;;;;;;;20.74;67.72;99325.97;2043892;28;20017;-47
2022/05/31 03:26:34;;;;;;;;;;;;;;;20.72;68.07;99326.44;2044021;28;20352;-47
2022/05/31 03:27:35;;;;;;;;;;;;;;;20.73;67.33;99318.97;2045490;28;20739;-47
2022/05/31 03:28:36;;;;;;;;;;;;;;;20.72;67.67;99320.94;2045206;28;20274;-46
2022/05/31 03:29:38;;;;;;;;;;;;;;;20.73;67.54;99321.72;2044058;28;20741;-46
2022/05/31 03:30:39;;;;;;;;;;;;;;;20.73;67.50;99316.22;2044448;28;19918;-47
2022/05/31 03:31:40;;;;;;;;;;;;;;;20.71;67.38;99316.66;2044025;28;20329;-47
2022/05/31 03:32:41;;;;;;;;;;;;;;;20.70;67.35;99304.09;2044231;28;19922;-46
2022/05/31 03:33:42;;;;;;;;;;;;;;;20.71;67.82;99305.63;2043431;28;19929;-47
2022/05/31 03:34:42;;;;;;;;;;;;;;;20.70;67.99;99300.56;2042852;28;19980;-45
2022/05/31 03:35:43;;;;;;;;;;;;;;;20.68;67.08;99303.75;2041147;28;19922;-46
2022/05/31 03:36:43;;;;;;;;;;;;;;;20.68;66.88;99295.50;2045039;28;19913;-46
2022/05/31 03:37:43;;;;;;;;;;;;;;;20.67;67.63;99300.22;2051462;28;20016;-46
2022/05/31 03:38:44;;;;;;;;;;;;;;;20.67;67.36;99299.50;2042494;28;19925;-46
2022/05/31 03:39:44;;;;;;;;;;;;;;;20.66;67.37;99300.69;2043548;28;19914;-46
2022/05/31 03:40:57;;;;;;;;;;;;;;;20.67;67.29;99301.47;2043997;28;20371;-46
2022/05/31 03:41:57;;;;;;;;;;;;;;;20.66;67.46;99303.44;2044369;28;19914;-46
2022/05/31 03:43:01;;;;;;;;;;;;;;;20.65;67.93;99310.16;2051265;28;20019;-47
2022/05/31 03:44:02;;;;;;;;;;;;;;;20.65;67.37;99310.16;2050664;28;19912;-47
2022/05/31 03:45:02;;;;;;;;;;;;;;;20.64;67.12;99311.38;2044781;28;20344;-47
2022/05/31 03:46:03;;;;;;;;;;;;;;;20.64;68.09;99323.13;2044332;28;19918;-48
2022/05/31 03:47:04;;;;;;;;;;;;;;;20.63;67.73;99318.84;2043632;28;20020;-47
2022/05/31 03:48:05;;;;;;;;;;;;;;;20.61;68.17;99324.03;2045584;28;19914;-50
2022/05/31 03:49:05;;;;;;;;;;;;;;;20.63;67.40;99329.06;2043633;28;19921;-48
2022/05/31 03:50:06;;;;;;;;;;;;;;;20.61;67.28;99335.03;2050178;28;20299;-47
2022/05/31 03:51:07;;;;;;;;;;;;;;;20.61;67.30;99331.53;2051757;28;19914;-46
2022/05/31 03:52:07;;;;;;;;;;;;;;;20.60;67.58;99341.75;2045030;28;20195;-46
2022/05/31 03:53:12;;;;;;;;;;;;;;;20.61;68.04;99337.78;2044232;28;20138;-47
2022/05/31 03:54:12;;;;;;;;;;;;;;;20.61;67.27;99337.00;2044243;28;19918;-48
2022/05/31 03:55:12;;;;;;;;;;;;;;;20.60;67.80;99346.47;2045129;28;20680;-46
2022/05/31 03:56:13;;;;;;;;;;;;;;;20.61;67.85;99351.53;2043316;28;19906;-47
2022/05/31 03:57:18;;;;;;;;;;;;;;;20.63;67.33;99353.84;2044438;28;19914;-46
2022/05/31 03:58:18;;;;;;;;;;;;;;;20.62;67.08;99346.81;2044046;28;19914;-46
2022/05/31 03:59:18;;;;;;;;;;;;;;;20.62;66.99;99349.56;2043701;28;19906;-49
2022/05/31 04:00:19;;;;;;;;;;;;;;;20.61;67.21;99345.28;2045539;28;20324;-45
2022/05/31 04:01:20;;;;;;;;;;;;;;;20.62;67.13;99338.56;2041933;28;20005;-47
2022/05/31 04:02:20;;;;;;;;;;;;;;;20.61;67.51;99331.53;2044122;28;19976;-48
2022/05/31 04:03:20;;;;;;;;;;;;;;;20.61;67.42;99324.03;2044790;28;20715;-48
2022/05/31 04:04:21;;;;;;;;;;;;;;;20.62;67.45;99322.06;2043184;28;19914;-46
2022/05/31 04:05:21;;;;;;;;;;;;;;;20.62;67.66;99328.31;2043514;28;19914;-47
2022/05/31 04:06:22;;;;;;;;;;;;;;;20.61;67.62;99329.53;2044591;28;20277;-46
2022/05/31 04:07:22;;;;;;;;;;;;;;;20.60;68.30;99329.97;2045141;28;19994;-46
2022/05/31 04:08:24;;;;;;;;;;;;;;;20.61;68.35;99339.78;2043991;28;19910;-46
2022/05/31 04:09:24;;;;;;;;;;;;;;;20.61;68.00;99340.53;2043495;28;19953;-47
2022/05/31 04:10:25;;;;;;;;;;;;;;;20.62;68.04;99349.56;2044074;28;19914;-49
2022/05/31 04:11:25;;;;;;;;;;;;;;;20.61;67.69;99343.28;2044151;28;19914;-46
2022/05/31 04:12:25;;;;;;;;;;;;;;;20.61;67.90;99348.78;2043632;28;19914;-49
2022/05/31 04:13:27;;;;;;;;;;;;;;;20.60;67.80;99346.47;2043319;28;19998;-47
2022/05/31 04:14:27;;;;;;;;;;;;;;;20.61;67.68;99342.53;2044581;28;19906;-46
2022/05/31 04:15:28;;;;;;;;;;;;;;;20.61;67.64;99342.53;2045042;28;19914;-47
2022/05/31 04:16:28;;;;;;;;;;;;;;;20.61;67.91;99339.78;2043623;28;19920;-46
2022/05/31 04:17:28;;;;;;;;;;;;;;;20.59;67.67;99344.94;2051354;28;19912;-47
2022/05/31 04:18:28;;;;;;;;;;;;;;;20.60;67.86;99341.75;2051099;28;19929;-47
2022/05/31 04:19:29;;;;;;;;;;;;;;;20.59;68.06;99344.94;2044504;28;20013;-47
2022/05/31 04:20:29;;;;;;;;;;;;;;;20.58;67.72;99344.16;2044127;28;19914;-47
2022/05/31 04:21:30;;;;;;;;;;;;;;;20.59;67.58;99347.69;2043834;28;19945;-46
2022/05/31 04:22:31;;;;;;;;;;;;;;;20.58;68.19;99355.16;2043373;28;20326;-47
2022/05/31 04:24:54;;;;;;;;;;;;;;;20.59;68.54;99358.69;2044245;28;20650;-47
2022/05/31 04:26:01;;;;;;;;;;;;;;;20.59;68.48;99361.44;2044461;28;19925;-47
2022/05/31 04:27:02;;;;;;;;;;;;;;;20.58;67.75;99357.13;2043060;28;19921;-47
2022/05/31 04:28:04;;;;;;;;;;;;;;;20.59;67.79;99355.94;2045297;28;19914;-46
2022/05/31 04:29:04;;;;;;;;;;;;;;;20.60;67.83;99357.47;2043415;28;19917;-47
2022/05/31 04:30:05;;;;;;;;;;;;;;;20.60;67.70;99361.00;2040893;28;19941;-49
2022/05/31 04:31:06;;;;;;;;;;;;;;;20.58;68.81;99355.16;2044421;28;20305;-47
2022/05/31 04:32:06;;;;;;;;;;;;;;;20.58;68.71;99368.16;2044128;28;19913;-47
2022/05/31 04:33:07;;;;;;;;;;;;;;;20.58;68.63;99362.63;2044586;28;19917;-46
2022/05/31 04:34:07;;;;;;;;;;;;;;;20.59;68.65;99366.94;2043318;28;19914;-47
2022/05/31 04:35:07;;;;;;;;;;;;;;;20.58;68.81;99365.41;2051795;28;19964;-49
2022/05/31 04:36:09;;;;;;;;;;;;;;;20.58;68.57;99365.41;2051849;28;19913;-47
2022/05/31 04:37:10;;;;;;;;;;;;;;;20.58;68.41;99370.91;2042257;28;19914;-47
2022/05/31 04:38:10;;;;;;;;;;;;;;;20.57;68.10;99364.63;2042207;28;19953;-46
2022/05/31 04:39:11;;;;;;;;;;;;;;;20.57;68.55;99366.59;2040822;28;19965;-48
2022/05/31 04:40:11;;;;;;;;;;;;;;;20.57;68.33;99375.63;2046070;28;20305;-48
2022/05/31 04:41:30;;;;;;;;;;;;;;;20.57;68.24;99377.59;2043624;28;19920;-47
2022/05/31 04:42:30;;;;;;;;;;;;;;;20.56;68.84;99385.13;2044168;28;19918;-46
2022/05/31 04:43:31;;;;;;;;;;;;;;;20.57;68.75;99380.34;2051392;28;19916;-48
2022/05/31 04:44:32;;;;;;;;;;;;;;;20.57;68.50;99383.88;2043921;28;19914;-48
2022/05/31 04:45:32;;;;;;;;;;;;;;;20.57;67.84;99383.88;2051065;28;20609;-48
2022/05/31 04:46:33;;;;;;;;;;;;;;;20.56;68.24;99387.88;2051783;28;19918;-47
2022/05/31 04:47:34;;;;;;;;;;;;;;;20.56;68.86;99393.38;2044336;28;19997;-46
2022/05/31 04:48:34;;;;;;;;;;;;;;;20.55;68.70;99400.06;2044435;28;19945;-47
2022/05/31 04:49:34;;;;;;;;;;;;;;;20.56;68.31;99389.84;2043610;28;19920;-50
2022/05/31 04:50:35;;;;;;;;;;;;;;;20.56;68.63;99389.84;2043494;28;20647;-48
2022/05/31 04:51:36;;;;;;;;;;;;;;;20.57;69.03;99396.84;2044678;28;20336;-47
2022/05/31 04:52:36;;;;;;;;;;;;;;;20.56;68.48;99382.34;2042822;28;19914;-47
2022/05/31 04:53:37;;;;;;;;;;;;;;;20.56;67.97;99384.34;2051386;28;19910;-46
2022/05/31 04:54:37;;;;;;;;;;;;;;;20.55;68.44;99378.06;2051825;28;19924;-46
2022/05/31 04:55:37;;;;;;;;;;;;;;;20.55;68.77;99383.56;2043140;28;19906;-45
2022/05/31 04:56:38;;;;;;;;;;;;;;;20.55;69.00;99383.56;2044963;28;19922;-48
2022/05/31 04:57:38;;;;;;;;;;;;;;;20.55;68.54;99385.53;2050564;28;19925;-48
2022/05/31 04:58:39;;;;;;;;;;;;;;;20.55;68.64;99394.56;2051525;28;20000;-46
2022/05/31 04:59:39;;;;;;;;;;;;;;;20.56;68.53;99395.34;2041878;28;19918;-46
2022/05/31 05:00:39;;;;;;;;;;;;;;;20.54;68.24;99395.78;2042716;28;19936;-47
2022/05/31 05:01:40;;;;;;;;;;;;;;;20.55;68.12;99394.56;2043884;28;20085;-47
2022/05/31 05:02:40;;;;;;;;;;;;;;;20.54;67.38;99393.03;2043918;28;19914;-47
2022/05/31 05:03:41;;;;;;;;;;;;;;;20.54;68.44;99390.28;2043086;28;19918;-47
2022/05/31 05:04:42;;;;;;;;;;;;;;;20.55;68.35;99388.28;2044727;28;20004;-47
2022/05/31 05:05:42;;;;;;;;;;;;;;;20.54;68.07;99387.53;2042656;28;19928;-48
2022/05/31 05:06:42;;;;;;;;;;;;;;;20.55;68.33;99388.28;2044470;28;20483;-46
2022/05/31 05:07:42;;;;;;;;;;;;;;;20.53;68.52;99385.19;2044730;28;19913;-46
2022/05/31 05:08:43;;;;;;;;;;;;;;;20.53;68.77;99385.97;2042967;28;19918;-46
2022/05/31 05:09:43;;;;;;;;;;;;;;;20.52;68.47;99383.66;2045080;28;19910;-46
2022/05/31 05:10:45;;;;;;;;;;;;;;;20.52;68.70;99378.94;2042898;28;19906;-48
2022/05/31 05:11:46;;;;;;;;;;;;;;;20.53;68.22;99376.94;2044164;28;19968;-46
2022/05/31 05:12:46;;;;;;;;;;;;;;;20.51;68.47;99371.91;2043399;28;19933;-47
2022/05/31 05:13:47;;;;;;;;;;;;;;;20.52;68.33;99372.66;2051897;28;19973;-48
2022/05/31 05:14:48;;;;;;;;;;;;;;;20.53;67.90;99371.44;2051063;28;19987;-46
2022/05/31 05:15:48;;;;;;;;;;;;;;;20.51;68.11;99360.13;2044229;28;19950;-46
2022/05/31 05:16:48;;;;;;;;;;;;;;;20.51;68.83;99371.91;2042856;28;19906;-47
2022/05/31 05:17:48;;;;;;;;;;;;;;;20.50;69.22;99359.34;2042330;28;19957;-46
2022/05/31 05:18:49;;;;;;;;;;;;;;;20.50;68.32;99372.34;2043135;28;19913;-46
2022/05/31 05:19:49;;;;;;;;;;;;;;;20.51;68.47;99360.13;2045882;28;19917;-45
2022/05/31 05:20:50;;;;;;;;;;;;;;;20.50;68.43;99364.09;2045279;28;20517;-47
2022/05/31 05:21:52;;;;;;;;;;;;;;;20.50;68.65;99359.34;2044106;28;19918;-46
2022/05/31 05:22:52;;;;;;;;;;;;;;;20.51;68.58;99360.13;2044556;28;20371;-46
2022/05/31 05:23:53;;;;;;;;;;;;;;;20.50;68.84;99364.09;2043587;28;19914;-47
2022/05/31 05:24:53;;;;;;;;;;;;;;;20.50;68.81;99355.84;2044201;28;20173;-47